Flight Track Log - Related Links

Times and Time Zones

All times are in EDT time to prevent confusion due to time zone crossing. See the SWA561 flight status page for this flight to view local times or setup timezone preferences in your user account.

Time Position Orientation Groundspeed Altitude Reporting Facility
EDT Latitude Longitude Course Direction KTS MPH feet Rate Location/Type
Mon 08:13:37 PM 37.7167 -122.2500 107° East 127 146 2,000  Level Northern Cal TRACON
Mon 08:14:43 PM 37.7500 -122.3000 310° West 199 229 4,900 2,563 Climbing Northern Cal TRACON
Mon 08:15:13 PM 37.7556 -122.3236 287° West 191 220 6,100 3,297 Climbing Oakland Center
Mon 08:16:14 PM 37.7286 -122.3864 242° Southwest 242 278 9,900 2,857 Climbing Oakland Center
Mon 08:16:37 PM 37.6833 -122.4000 193° South 311 358 10,100 2,557 Climbing Northern Cal TRACON
Mon 08:18:16 PM 37.5392 -122.3189 156° South 370 426 15,100 2,775 Climbing Oakland Center
Mon 08:19:00 PM 37.2460 -122.2675 107° East  Level FlightAware Approximate
Mon 08:19:17 PM 37.4539 -122.2092 134° Southeast 424 488 17,500  Level Oakland Center
Mon 08:20:19 PM 37.3639 -122.0928 134° Southeast 456 525 21,500 3,415 Climbing Oakland Center
Mon 08:21:20 PM 37.2736 -121.9775 135° Southeast 463 533 24,500 2,754 Climbing Oakland Center
Mon 08:22:21 PM 37.1778 -121.8569 135° Southeast 483 556 27,100 2,754 Climbing Oakland Center
Mon 08:23:22 PM 37.0819 -121.7347 134° Southeast 493 567 30,100 2,803 Climbing Oakland Center
Mon 08:24:23 PM 36.9858 -121.6189 136° Southeast 480 552 32,800 1,426 Climbing Oakland Center
Mon 08:25:24 PM 36.8917 -121.5003 135° Southeast 480 552 33,000 98 Climbing Oakland Center
Mon 08:26:26 PM 36.7881 -121.3675 134° Southeast 478 550 33,000  Level Oakland Center
Mon 08:27:27 PM 36.6928 -121.2550 137° Southeast 473 544 33,000  Level Oakland Center
Mon 08:28:28 PM 36.6022 -121.1397 134° Southeast 466 536 33,000  Level Oakland Center
Mon 08:29:29 PM 36.5106 -121.0269 135° Southeast 464 534 33,000  Level Oakland Center
Mon 08:30:30 PM 36.4192 -120.9128 135° Southeast 466 536 33,000  Level Oakland Center
Mon 08:31:31 PM 36.3253 -120.7967 135° Southeast 476 548 33,000  Level Oakland Center
Mon 08:32:32 PM 36.2217 -120.6736 136° Southeast 511 588 33,000  Level Oakland Center
Mon 08:33:33 PM 36.1208 -120.5481 135° Southeast 513 590 33,000  Level Oakland Center
Mon 08:34:34 PM 36.0189 -120.4244 136° Southeast 514 592 33,000  Level Oakland Center
Mon 08:35:35 PM 35.9175 -120.3036 136° Southeast 506 582 33,000  Level Oakland Center
Mon 08:36:37 PM 35.7958 -120.1583 136° Southeast 504 580 33,000  Level Oakland Center
Mon 08:37:38 PM 35.6956 -120.0367 135° Southeast 502 578 33,000  Level Oakland Center
Mon 08:38:39 PM 35.5889 -119.9292 141° Southeast 488 562 33,000  Level Oakland Center
Mon 08:39:40 PM 35.4764 -119.8306 144° Southeast 489 563 33,000  Level Oakland Center
Mon 08:40:41 PM 35.3656 -119.7347 145° Southeast 484 557 33,000  Level Oakland Center
Mon 08:41:01 PM 35.3444 -119.7150 143° Southeast 487 560 33,000  Level Los Angeles Center
Mon 08:42:03 PM 35.2322 -119.6211 146° Southeast 487 560 33,000  Level Los Angeles Center
Mon 08:43:05 PM 35.0981 -119.5075 145° Southeast 487 560 33,000  Level Los Angeles Center
Mon 08:44:07 PM 34.9883 -119.4122 145° Southeast 483 556 33,000 -484 Level Los Angeles Center
Mon 08:45:09 PM 34.8775 -119.3186 145° Southeast 484 557 32,000 -2,565 Descending Los Angeles Center
Mon 08:46:11 PM 34.7658 -119.2231 145° Southeast 488 562 27,700 -3,581 Descending Los Angeles Center
Mon 08:47:13 PM 34.6528 -119.1308 146° Southeast 490 564 24,600 -3,048 Descending Los Angeles Center
Mon 08:48:15 PM 34.5428 -119.0378 145° Southeast 433 498 21,400 -3,000 Descending Los Angeles Center
Mon 08:49:17 PM 34.4472 -118.9586 146° Southeast 414 476 18,400 -2,952 Descending Los Angeles Center
Mon 08:50:19 PM 34.3572 -118.8831 145° Southeast 392 451 15,300 -2,585 Descending Los Angeles Center
Mon 08:51:20 PM 34.2597 -118.8450 162° South 369 425 13,100 -1,756 Descending Los Angeles Center
Mon 08:52:22 PM 34.1492 -118.8056 164° South 341 392 11,700 -1,403 Descending Los Angeles Center
Mon 08:53:24 PM 34.0786 -118.7786 162° South 320 368 10,200 -823 Descending Los Angeles Center
Mon 08:54:26 PM 34.0306 -118.6717 118° Southeast 308 354 10,000 -581 Descending Los Angeles Center
Mon 08:55:28 PM 34.0214 -118.5758 97° East 289 333 9,000 -968 Descending Los Angeles Center
Mon 08:56:30 PM 34.0122 -118.4833 97° East 278 320 8,000 -871 Descending Los Angeles Center
Mon 08:57:32 PM 34.0144 -118.4033 88° East 266 306 7,200 -976 Descending Los Angeles Center
Mon 08:58:33 PM 34.0189 -118.3175 86° East 259 298 6,000 -878 Descending Los Angeles Center
Mon 08:59:35 PM 34.0275 -118.2258 84° East 236 272 5,400 -629 Descending Los Angeles Center
Mon 09:00:37 PM 34.0369 -118.1661 79° East 189 217 4,700 -871 Descending Los Angeles Center
Mon 09:01:39 PM 34.0489 -118.1069 76° East 182 209 3,600 -992 Descending Los Angeles Center
Mon 09:02:38 PM 34.0167 -118.1000 170° South 168 193 2,700 -605 Descending Southern California TRACON
Mon 09:03:38 PM 33.9833 -118.1333 220° Southwest 174 200 2,400 -286 Descending Southern California TRACON
Mon 09:04:44 PM 33.9731 -118.1931 258° West 174 200 2,100 -94 Descending Los Angeles Center
Mon 09:05:46 PM 33.9683 -118.2514 264° West 175 201 2,200 -290 Climbing Los Angeles Center
Mon 09:06:48 PM 33.9611 -118.3175 263° West 172 198 1,500 -683 Descending Los Angeles Center
Mon 09:07:49 PM 33.9575 -118.3603 264° West 147 169 800 -634 Descending Los Angeles Center
Mon 09:08:51 PM 33.9525 -118.4006 261° West 132 152 200 -581 Descending Los Angeles Center

Login

Don't have an account? Register now (free) for customized features, flight alerts, and more!